Cameron Station, Virginia
Current Conditions -  °F | °C
As of 11:52 PM on Monday 22 Dec 2014 (Local Time) from KDCA Reporting Station
Drizzle Drizzle  
Wind Chill: 34°   Ceiling: 700
Heat Index: 40°   Visibility: 1.7mi
Dew Point: 36°   Wind: 8mph
Humidity: 86%   Direction: 330°NNW
Pressure: 30.09"   Gusts: NA
Location:  38.8134°N, 77.1153°W
Report Text: KDCA 230452Z 33007KT 1 3/4SM -DZ BR OVC007 04/02 A3009 RMK AO2 RAE21DZB21 SLP187 P0000 T00440022 400830006
Loading
Personal Weather Stations






























Interactive Weather Map New forecast layout! Learn more

10-Day Weather Forecast

Advertisements
Track Severe Weather on mobile